createdAt,value
2023-02-27T00:00:36.441Z,73.81
2023-02-27T00:03:24.349Z,74.23
2023-02-27T00:05:52.370Z,74.63
2023-02-27T00:08:20.012Z,74.62
2023-02-27T00:10:48.079Z,74.92
2023-02-27T00:13:15.740Z,75.18
2023-02-27T00:15:47.101Z,75.29
2023-02-27T00:18:14.963Z,74.78
2023-02-27T00:20:43.176Z,74.76
2023-02-27T00:23:11.020Z,74.93
2023-02-27T00:25:39.026Z,75.16
2023-02-27T00:28:06.627Z,75.33
2023-02-27T00:30:34.709Z,75.26
2023-02-27T00:33:02.381Z,75.01
2023-02-27T00:35:30.418Z,75.01
2023-02-27T00:37:58.075Z,75.71
2023-02-27T00:40:26.409Z,75.68
2023-02-27T00:42:54.625Z,75.71
2023-02-27T00:45:23.043Z,76.09
2023-02-27T00:47:50.746Z,76.02
2023-02-27T00:50:18.766Z,75.97
2023-02-27T00:52:46.543Z,76.66
2023-02-27T00:55:14.629Z,76.77
2023-02-27T00:57:42.614Z,77.17
2023-02-27T01:00:11.599Z,77.37
2023-02-27T01:02:39.532Z,77.53
2023-02-27T01:05:09.210Z,78.03
2023-02-27T01:07:37.693Z,78.25
2023-02-27T01:10:07.299Z,78.63
2023-02-27T01:12:36.036Z,79.15
2023-02-27T01:15:06.040Z,79.34
2023-02-27T01:17:33.974Z,79.52
2023-02-27T01:20:02.007Z,79.56
2023-02-27T01:22:29.649Z,80.12
2023-02-27T01:24:57.613Z,80.57
2023-02-27T01:27:25.324Z,80.75
2023-02-27T01:29:53.305Z,81.04
2023-02-27T01:32:21.153Z,81.26
2023-02-27T01:34:49.369Z,81.17
2023-02-27T01:37:17.557Z,81.83
2023-02-27T01:39:45.588Z,81.69
2023-02-27T01:42:23.157Z,81.71
2023-02-27T01:45:29.063Z,81.88
2023-02-27T01:48:20.181Z,82.40
2023-02-27T01:50:57.590Z,82.19
2023-02-27T01:53:30.065Z,82.86
2023-02-27T01:56:07.943Z,83.02
2023-02-27T01:58:36.943Z,83.32
2023-02-27T02:01:05.291Z,83.64
2023-02-27T02:03:38.575Z,83.99
2023-02-27T02:06:07.944Z,84.34
2023-02-27T02:08:41.894Z,84.24
2023-02-27T02:11:10.332Z,84.29
2023-02-27T02:13:40.364Z,84.54
2023-02-27T02:16:49.090Z,84.52
2023-02-27T02:19:48.057Z,84.80
2023-02-27T02:22:59.848Z,85.16
2023-02-27T02:25:55.112Z,85.31
2023-02-27T02:28:47.784Z,85.50
2023-02-27T02:31:45.016Z,85.65
2023-02-27T02:34:15.792Z,85.98
2023-02-27T02:37:14.366Z,86.27
2023-02-27T02:40:05.383Z,86.09
2023-02-27T02:42:45.552Z,86.30
2023-02-27T02:45:26.822Z,86.54
2023-02-27T02:48:15.770Z,86.56
2023-02-27T02:50:57.080Z,86.76
2023-02-27T02:53:36.600Z,86.92
2023-02-27T02:56:25.634Z,87.13
2023-02-27T02:59:34.198Z,87.06
2023-02-27T03:02:17.065Z,87.31
2023-02-27T03:04:49.266Z,87.53
2023-02-27T03:07:26.849Z,87.94
2023-02-27T03:10:09.952Z,87.92
2023-02-27T03:12:41.638Z,88.37
2023-02-27T03:18:24.813Z,88.76
2023-02-27T03:20:57.587Z,89.16
2023-02-27T03:23:42.261Z,89.15
2023-02-27T03:26:20.962Z,89.48
2023-02-27T03:29:01.689Z,89.55
2023-02-27T03:31:41.216Z,89.76
2023-02-27T03:34:18.247Z,89.68
2023-02-27T03:36:50.733Z,89.92
2023-02-27T03:39:27.452Z,90.48
2023-02-27T03:42:09.095Z,90.33
2023-02-27T03:45:20.041Z,90.54
2023-02-27T03:47:48.346Z,90.80
2023-02-27T03:50:16.780Z,90.99
2023-02-27T03:52:45.741Z,91.11
2023-02-27T03:55:28.023Z,91.69
2023-02-27T03:57:56.551Z,91.81
2023-02-27T04:00:26.508Z,92.00
2023-02-27T04:02:59.672Z,92.29
2023-02-27T04:05:29.646Z,92.92
2023-02-27T04:08:08.062Z,92.88
2023-02-27T04:10:55.684Z,92.82
2023-02-27T04:13:52.456Z,93.34
2023-02-27T04:16:23.309Z,93.51
2023-02-27T04:19:23.575Z,93.91
2023-02-27T04:22:25.861Z,93.80
2023-02-27T04:25:01.918Z,94.50
2023-02-27T04:27:41.550Z,94.28
2023-02-27T04:30:18.293Z,94.22
2023-02-27T04:33:09.835Z,94.91
2023-02-27T04:36:06.274Z,94.74
2023-02-27T04:38:51.627Z,95.25
2023-02-27T04:41:48.783Z,95.26
2023-02-27T04:44:18.821Z,95.29
2023-02-27T04:46:47.923Z,95.52
2023-02-27T04:49:28.037Z,95.52
2023-02-27T04:52:01.769Z,95.83
2023-02-27T04:54:46.816Z,95.46
2023-02-27T04:57:24.827Z,95.24
2023-02-27T04:59:55.863Z,95.42
2023-02-27T05:02:32.838Z,95.08
2023-02-27T05:05:06.371Z,94.58
2023-02-27T05:07:58.783Z,94.26
2023-02-27T05:10:40.096Z,94.22
2023-02-27T05:13:23.358Z,94.25
2023-02-27T05:16:10.928Z,94.07
2023-02-27T05:18:39.188Z,94.21
2023-02-27T05:21:29.819Z,94.12
2023-02-27T05:24:14.184Z,93.93
2023-02-27T05:27:13.634Z,93.87
2023-02-27T05:29:41.571Z,93.25
2023-02-27T05:32:32.127Z,93.18
2023-02-27T05:35:34.124Z,93.16
2023-02-27T05:38:15.853Z,92.13
2023-02-27T05:41:01.873Z,90.60
2023-02-27T05:43:34.880Z,89.74
2023-02-27T05:46:11.552Z,87.74
2023-02-27T05:48:52.093Z,86.53
2023-02-27T05:51:22.401Z,85.68
2023-02-27T05:53:58.461Z,86.07
2023-02-27T05:56:29.928Z,85.85
2023-02-27T05:59:10.643Z,85.88
2023-02-27T06:01:38.652Z,86.17
2023-02-27T06:04:06.313Z,85.74
2023-02-27T06:06:36.617Z,84.99
2023-02-27T06:09:04.628Z,84.28
2023-02-27T06:11:32.513Z,84.02
2023-02-27T06:14:00.241Z,83.24
2023-02-27T06:16:28.323Z,83.16
2023-02-27T06:18:56.204Z,82.42
2023-02-27T06:21:24.162Z,81.95
2023-02-27T06:23:51.784Z,81.49
2023-02-27T06:26:19.811Z,79.91
2023-02-27T06:28:47.517Z,77.95
2023-02-27T06:31:15.453Z,75.47
2023-02-27T06:33:43.189Z,72.82
2023-02-27T06:36:11.230Z,72.30
2023-02-27T06:38:38.943Z,71.15
2023-02-27T06:41:07.514Z,70.19
2023-02-27T06:43:37.287Z,68.50
2023-02-27T06:46:05.613Z,66.98
2023-02-27T06:48:33.601Z,66.22
2023-02-27T06:51:01.624Z,64.13
2023-02-27T06:53:29.689Z,62.17
2023-02-27T06:55:57.741Z,60.82
2023-02-27T06:58:25.496Z,59.27
2023-02-27T07:00:53.478Z,58.43
2023-02-27T07:03:21.132Z,57.41
2023-02-27T07:05:49.090Z,56.86
2023-02-27T07:08:17.683Z,55.70
2023-02-27T07:10:47.234Z,54.59
2023-02-27T07:13:19.121Z,54.10
2023-02-27T07:15:47.589Z,53.47
2023-02-27T07:18:15.428Z,52.76
2023-02-27T07:20:43.291Z,52.20
2023-02-27T07:23:10.980Z,51.38
2023-02-27T07:25:39.010Z,50.33
2023-02-27T07:28:06.911Z,49.46
2023-02-27T07:30:34.832Z,48.90
2023-02-27T07:33:02.572Z,47.75
2023-02-27T07:35:30.522Z,47.04
2023-02-27T07:37:58.212Z,46.01
2023-02-27T07:40:26.189Z,44.84
2023-02-27T07:42:53.837Z,42.70
2023-02-27T07:45:23.566Z,40.83
2023-02-27T07:47:51.304Z,40.54
2023-02-27T07:50:19.398Z,40.29
2023-02-27T07:52:47.545Z,40.70
2023-02-27T07:55:15.524Z,39.17
2023-02-27T07:57:44.816Z,36.92
2023-02-27T08:00:13.395Z,35.12
2023-02-27T08:02:41.100Z,33.52
2023-02-27T08:05:09.958Z,31.44
2023-02-27T08:07:37.710Z,29.79
2023-02-27T08:10:07.003Z,29.91
2023-02-27T08:12:35.120Z,28.95
2023-02-27T08:15:03.329Z,28.73
2023-02-27T08:17:30.972Z,28.00
2023-02-27T08:19:58.974Z,26.94
2023-02-27T08:22:29.195Z,25.96
2023-02-27T08:24:57.223Z,25.69
2023-02-27T08:27:25.216Z,24.87
2023-02-27T08:29:53.273Z,24.40
2023-02-27T08:32:21.310Z,25.60
2023-02-27T08:34:49.686Z,26.61
2023-02-27T08:37:17.486Z,28.23
2023-02-27T08:39:45.526Z,30.22
2023-02-27T08:42:13.325Z,32.26
2023-02-27T08:44:41.610Z,33.58
2023-02-27T08:47:09.660Z,33.56
2023-02-27T08:49:37.752Z,31.14
2023-02-27T08:52:05.661Z,30.78
2023-02-27T08:54:33.586Z,30.91
2023-02-27T08:57:01.192Z,29.49
2023-02-27T08:59:29.203Z,27.06
2023-02-27T09:01:57.437Z,25.97
2023-02-27T09:04:26.339Z,26.26
2023-02-27T09:06:54.117Z,27.48
2023-02-27T09:09:23.806Z,30.17
2023-02-27T09:11:52.083Z,32.53
2023-02-27T09:14:20.572Z,34.51
2023-02-27T09:16:48.715Z,35.66
2023-02-27T09:19:16.841Z,37.43
2023-02-27T09:21:44.523Z,38.14
2023-02-27T09:24:19.737Z,38.79
2023-02-27T09:26:50.125Z,37.92
2023-02-27T09:29:18.817Z,38.03
2023-02-27T09:31:47.361Z,36.50
2023-02-27T09:34:15.365Z,35.03
2023-02-27T09:36:43.224Z,35.17
2023-02-27T09:39:11.356Z,36.40
2023-02-27T09:41:48.293Z,37.00
2023-02-27T09:44:47.880Z,37.34
2023-02-27T09:47:48.021Z,38.34
2023-02-27T09:50:44.803Z,38.96
2023-02-27T09:53:40.138Z,39.23
2023-02-27T09:56:24.728Z,37.41
2023-02-27T09:58:55.744Z,35.47
2023-02-27T10:01:56.220Z,35.14
2023-02-27T10:04:45.575Z,34.62
2023-02-27T10:07:13.496Z,35.64
2023-02-27T10:09:48.355Z,36.05
2023-02-27T10:12:34.894Z,37.18
2023-02-27T10:15:20.405Z,38.11
2023-02-27T10:18:10.446Z,39.75
2023-02-27T10:20:55.829Z,39.65
2023-02-27T10:23:32.645Z,40.13
2023-02-27T10:26:01.866Z,40.79
2023-02-27T10:28:31.644Z,41.63
2023-02-27T10:31:02.415Z,41.76
2023-02-27T10:33:34.721Z,41.52
2023-02-27T10:36:03.680Z,41.88
2023-02-27T10:38:45.596Z,42.47
2023-02-27T10:41:15.839Z,42.49
2023-02-27T10:43:44.651Z,41.45
2023-02-27T10:46:19.571Z,41.83
2023-02-27T10:48:47.922Z,41.61
2023-02-27T10:51:30.387Z,40.91
2023-02-27T10:54:19.702Z,40.30
2023-02-27T10:56:56.911Z,39.73
2023-02-27T10:59:36.046Z,39.51
2023-02-27T11:02:21.721Z,39.53
2023-02-27T11:04:54.878Z,39.43
2023-02-27T11:07:38.690Z,39.29
2023-02-27T11:10:19.102Z,39.15
2023-02-27T11:13:05.162Z,39.97
2023-02-27T11:15:35.689Z,39.41
2023-02-27T11:18:27.608Z,40.20
2023-02-27T11:21:22.747Z,40.20
2023-02-27T11:23:55.515Z,40.45
2023-02-27T11:26:28.255Z,41.36
2023-02-27T11:29:18.938Z,41.69
2023-02-27T11:32:00.368Z,41.43
2023-02-27T11:34:36.293Z,42.12
2023-02-27T11:37:27.485Z,42.30
2023-02-27T11:40:16.025Z,42.51
2023-02-27T11:43:06.022Z,43.61
2023-02-27T11:49:03.179Z,44.24
2023-02-27T11:52:09.646Z,44.08
2023-02-27T11:54:45.513Z,44.19
2023-02-27T11:57:39.449Z,44.52
2023-02-27T12:00:16.054Z,44.24
2023-02-27T12:03:20.656Z,44.70
2023-02-27T12:05:53.704Z,44.65
2023-02-27T12:08:53.903Z,45.14
2023-02-27T12:11:33.135Z,44.85
2023-02-27T12:14:24.000Z,45.03
2023-02-27T12:16:59.280Z,45.07
2023-02-27T12:19:38.607Z,45.00
2023-02-27T12:22:29.094Z,45.33
2023-02-27T12:25:38.562Z,45.14
2023-02-27T12:28:23.519Z,45.47
2023-02-27T12:31:15.552Z,45.55
2023-02-27T12:33:59.045Z,46.09
2023-02-27T12:36:26.891Z,46.27
2023-02-27T12:38:55.046Z,46.29
2023-02-27T12:41:41.739Z,46.40
2023-02-27T12:44:25.586Z,46.65
2023-02-27T12:47:03.237Z,46.40
2023-02-27T12:49:55.578Z,46.65
2023-02-27T12:52:35.685Z,45.95
2023-02-27T12:55:12.831Z,46.14
2023-02-27T12:57:43.592Z,45.77
2023-02-27T13:00:20.545Z,45.64
2023-02-27T13:03:16.012Z,45.41
2023-02-27T13:05:52.628Z,45.86
2023-02-27T13:08:39.042Z,45.73
2023-02-27T13:11:22.231Z,46.16
2023-02-27T13:13:58.986Z,46.65
2023-02-27T13:16:43.904Z,46.74
2023-02-27T13:19:26.478Z,47.27
2023-02-27T13:21:55.823Z,47.39
2023-02-27T13:24:29.040Z,47.82
2023-02-27T13:27:23.659Z,47.20
2023-02-27T13:30:06.568Z,47.00
2023-02-27T13:32:52.712Z,46.58
2023-02-27T13:35:23.824Z,45.92
2023-02-27T13:37:58.746Z,46.90
2023-02-27T13:40:32.485Z,46.94
2023-02-27T13:43:06.465Z,46.97
2023-02-27T13:45:47.869Z,47.32
2023-02-27T13:48:34.198Z,46.61
2023-02-27T13:51:03.011Z,46.39
2023-02-27T13:53:31.040Z,45.80
2023-02-27T13:56:22.640Z,45.63
2023-02-27T13:58:51.242Z,45.89
2023-02-27T14:01:27.293Z,46.40
2023-02-27T14:04:02.938Z,46.56
2023-02-27T14:06:31.016Z,46.15
2023-02-27T14:09:12.725Z,47.37
2023-02-27T14:12:00.120Z,46.85
2023-02-27T14:14:50.335Z,47.43
2023-02-27T14:17:36.517Z,47.71
2023-02-27T14:20:10.603Z,47.83
2023-02-27T14:22:40.711Z,47.54
2023-02-27T14:25:26.468Z,47.92
2023-02-27T14:27:59.586Z,47.75
2023-02-27T14:30:37.655Z,47.36
2023-02-27T14:33:17.824Z,47.73
2023-02-27T14:35:56.211Z,47.46
2023-02-27T14:38:25.907Z,47.23
2023-02-27T14:41:29.543Z,47.58
2023-02-27T14:43:58.850Z,47.59
2023-02-27T14:46:39.271Z,47.56
2023-02-27T14:49:31.867Z,48.13
2023-02-27T14:52:18.146Z,48.58
2023-02-27T14:54:45.828Z,48.42
2023-02-27T14:57:28.901Z,48.61
2023-02-27T14:59:56.690Z,48.45
2023-02-27T15:02:32.636Z,48.23
2023-02-27T15:05:03.077Z,48.27
2023-02-27T15:07:33.306Z,48.18
2023-02-27T15:10:04.856Z,48.39
2023-02-27T15:12:38.279Z,48.59
2023-02-27T15:15:09.122Z,48.74
2023-02-27T15:17:42.431Z,49.39
2023-02-27T15:20:31.891Z,48.96
2023-02-27T15:23:02.025Z,48.74
2023-02-27T15:25:37.397Z,48.52
2023-02-27T15:28:17.672Z,49.32
2023-02-27T15:30:49.825Z,49.00
2023-02-27T15:33:18.755Z,49.13
2023-02-27T15:35:47.202Z,49.21
2023-02-27T15:38:30.181Z,48.95
2023-02-27T15:40:59.811Z,49.40
2023-02-27T15:43:29.334Z,49.18
2023-02-27T15:45:58.469Z,49.41
2023-02-27T15:48:26.917Z,48.80
2023-02-27T15:50:58.672Z,49.46
2023-02-27T15:53:29.003Z,49.61
2023-02-27T15:56:04.680Z,49.22
2023-02-27T15:58:38.910Z,49.24
2023-02-27T16:01:18.152Z,49.09
2023-02-27T16:03:49.130Z,48.84
2023-02-27T16:06:25.060Z,48.10
2023-02-27T16:09:05.268Z,48.93
2023-02-27T16:11:36.080Z,49.11
2023-02-27T16:14:06.052Z,48.78
2023-02-27T16:16:38.950Z,49.02
2023-02-27T16:19:28.670Z,49.17
2023-02-27T16:22:07.151Z,48.59
2023-02-27T16:24:34.998Z,48.73
2023-02-27T16:27:03.189Z,48.86
2023-02-27T16:29:52.377Z,49.21
2023-02-27T16:32:30.435Z,49.27
2023-02-27T16:35:07.979Z,49.61
2023-02-27T16:37:46.012Z,49.39
2023-02-27T16:40:16.411Z,49.86
2023-02-27T16:42:45.376Z,50.08
2023-02-27T16:45:23.209Z,49.68
2023-02-27T16:47:53.758Z,49.09
2023-02-27T16:50:33.402Z,48.89
2023-02-27T16:53:01.502Z,49.19
2023-02-27T16:55:29.446Z,49.87
2023-02-27T16:57:57.568Z,49.36
2023-02-27T17:00:25.421Z,49.12
2023-02-27T17:02:53.409Z,50.04
2023-02-27T17:05:21.337Z,50.17
2023-02-27T17:07:49.305Z,49.21
2023-02-27T17:10:22.078Z,48.79
2023-02-27T17:12:50.189Z,48.79
2023-02-27T17:15:18.198Z,48.59
2023-02-27T17:17:46.244Z,48.85
2023-02-27T17:20:15.187Z,49.02
2023-02-27T17:22:44.596Z,49.08
2023-02-27T17:25:13.454Z,49.20
2023-02-27T17:27:43.767Z,49.56
2023-02-27T17:30:12.442Z,49.51
2023-02-27T17:32:40.364Z,49.52
2023-02-27T17:35:08.963Z,49.73
2023-02-27T17:37:37.017Z,50.00
2023-02-27T17:40:08.165Z,49.91
2023-02-27T17:42:39.239Z,49.20
2023-02-27T17:45:08.298Z,49.42
2023-02-27T17:47:36.355Z,50.07
2023-02-27T17:50:05.277Z,49.67
2023-02-27T17:52:36.996Z,49.35
2023-02-27T17:55:05.940Z,49.59
2023-02-27T17:57:36.815Z,49.41
2023-02-27T18:00:09.004Z,49.53
2023-02-27T18:02:37.619Z,49.56
2023-02-27T18:05:06.570Z,49.92
2023-02-27T18:07:34.819Z,50.04
2023-02-27T18:10:05.452Z,49.74
2023-02-27T18:12:34.289Z,49.99
2023-02-27T18:15:03.293Z,50.05
2023-02-27T18:17:31.542Z,49.70
2023-02-27T18:19:59.878Z,49.67
2023-02-27T18:22:30.012Z,49.51
2023-02-27T18:24:58.761Z,49.65
2023-02-27T18:27:28.056Z,49.68
2023-02-27T18:29:57.699Z,49.65
2023-02-27T18:32:25.927Z,49.60
2023-02-27T18:34:54.173Z,50.27
2023-02-27T18:37:22.197Z,49.98
2023-02-27T18:39:49.998Z,50.16
2023-02-27T18:42:17.959Z,50.49
2023-02-27T18:44:45.734Z,50.53
2023-02-27T18:47:13.734Z,50.86
2023-02-27T18:49:41.566Z,51.05
2023-02-27T18:52:09.904Z,51.19
2023-02-27T18:54:37.965Z,51.43
2023-02-27T18:57:06.094Z,51.50
2023-02-27T18:59:33.870Z,51.09
2023-02-27T19:02:01.965Z,51.28
2023-02-27T19:04:33.137Z,50.90
2023-02-27T19:07:01.130Z,50.22
2023-02-27T19:09:32.780Z,50.73
2023-02-27T19:12:00.901Z,50.88
2023-02-27T19:14:28.605Z,50.85
2023-02-27T19:17:00.297Z,50.81
2023-02-27T19:19:28.554Z,50.65
2023-02-27T19:21:56.835Z,50.62
2023-02-27T19:24:24.982Z,50.24
2023-02-27T19:26:53.611Z,50.29
2023-02-27T19:29:21.670Z,50.45
2023-02-27T19:31:50.028Z,50.27
2023-02-27T19:34:17.868Z,50.18
2023-02-27T19:36:45.808Z,50.17
2023-02-27T19:39:13.885Z,50.13
2023-02-27T19:41:41.880Z,49.91
2023-02-27T19:44:09.868Z,49.91
2023-02-27T19:46:39.170Z,49.72
2023-02-27T19:49:08.636Z,50.69
2023-02-27T19:51:36.579Z,50.75
2023-02-27T19:54:04.500Z,50.48
2023-02-27T19:56:32.736Z,51.07
2023-02-27T19:59:00.933Z,50.67
2023-02-27T20:01:31.672Z,51.19
2023-02-27T20:04:00.633Z,51.60
2023-02-27T20:06:32.220Z,51.79
2023-02-27T20:09:00.627Z,52.62
2023-02-27T20:11:32.670Z,52.65
2023-02-27T20:14:01.488Z,53.32
2023-02-27T20:16:30.780Z,53.26
2023-02-27T20:18:58.751Z,53.91
2023-02-27T20:21:28.765Z,54.05
2023-02-27T20:23:57.990Z,54.84
2023-02-27T20:26:29.861Z,55.26
2023-02-27T20:29:04.114Z,55.91
2023-02-27T20:31:34.110Z,56.73
2023-02-27T20:34:02.192Z,56.91
2023-02-27T20:36:30.147Z,57.40
2023-02-27T20:38:58.086Z,58.16
2023-02-27T20:41:29.318Z,58.51
2023-02-27T20:43:58.458Z,58.67
2023-02-27T20:46:28.585Z,58.85
2023-02-27T20:49:00.990Z,59.55
2023-02-27T20:51:35.128Z,60.23
2023-02-27T20:54:04.828Z,61.23
2023-02-27T20:56:35.316Z,61.33
2023-02-27T20:59:08.050Z,62.18
2023-02-27T21:01:38.270Z,62.67
2023-02-27T21:04:06.792Z,62.92
2023-02-27T21:06:35.228Z,63.52
2023-02-27T21:09:06.199Z,63.99
2023-02-27T21:11:34.732Z,64.09
2023-02-27T21:14:11.397Z,63.99
2023-02-27T21:16:40.523Z,63.89
2023-02-27T21:19:08.605Z,64.45
2023-02-27T21:21:37.236Z,65.02
2023-02-27T21:24:06.142Z,65.45
2023-02-27T21:26:39.120Z,65.87
2023-02-27T21:29:15.915Z,66.65
2023-02-27T21:31:45.594Z,67.36
2023-02-27T21:34:16.575Z,67.46
2023-02-27T21:36:45.150Z,68.19
2023-02-27T21:39:16.672Z,69.14
2023-02-27T21:41:45.542Z,69.49
2023-02-27T21:44:15.926Z,70.18
2023-02-27T21:46:45.212Z,70.32
2023-02-27T21:49:39.427Z,70.80
2023-02-27T21:52:07.716Z,71.08
2023-02-27T21:54:35.444Z,71.59
2023-02-27T21:57:03.617Z,71.62
2023-02-27T21:59:31.558Z,71.96
2023-02-27T22:01:59.802Z,72.18
2023-02-27T22:04:28.248Z,72.50
2023-02-27T22:06:56.254Z,72.59
2023-02-27T22:09:24.039Z,72.50
2023-02-27T22:11:52.112Z,72.81
2023-02-27T22:14:19.801Z,73.14
2023-02-27T22:16:47.824Z,73.38
2023-02-27T22:19:20.086Z,73.70
2023-02-27T22:21:48.485Z,74.08
2023-02-27T22:24:16.372Z,74.67
2023-02-27T22:26:45.706Z,75.21
2023-02-27T22:29:13.429Z,75.53
2023-02-27T22:31:41.522Z,75.91
2023-02-27T22:34:13.148Z,76.00
2023-02-27T22:36:41.877Z,76.41
2023-02-27T22:39:10.561Z,76.92
2023-02-27T22:41:40.584Z,76.96
2023-02-27T22:44:12.276Z,77.31
2023-02-27T22:46:43.585Z,77.66
2023-02-27T22:49:15.065Z,78.00
2023-02-27T22:51:43.613Z,78.46
2023-02-27T22:54:14.008Z,78.68
2023-02-27T22:56:42.323Z,79.10
2023-02-27T22:59:10.355Z,79.35
2023-02-27T23:01:38.974Z,79.73
2023-02-27T23:04:08.891Z,80.16
2023-02-27T23:06:39.723Z,80.65
2023-02-27T23:09:10.770Z,81.13
2023-02-27T23:11:38.898Z,81.41
2023-02-27T23:14:06.874Z,81.68
2023-02-27T23:16:35.435Z,82.00
2023-02-27T23:19:04.346Z,82.28
2023-02-27T23:21:36.519Z,82.65
2023-02-27T23:24:10.458Z,82.80
2023-02-27T23:26:40.452Z,83.28
2023-02-27T23:29:09.161Z,83.44
2023-02-27T23:31:38.117Z,83.65
2023-02-27T23:34:06.376Z,84.12
2023-02-27T23:36:36.216Z,84.45
2023-02-27T23:39:06.092Z,84.84
2023-02-27T23:41:34.778Z,85.40
2023-02-27T23:44:21.574Z,85.52
2023-02-27T23:46:49.824Z,85.80
2023-02-27T23:49:17.465Z,86.40
2023-02-27T23:51:45.357Z,86.43
2023-02-27T23:54:13.029Z,86.85
2023-02-27T23:56:40.931Z,86.69
2023-02-27T23:59:08.717Z,86.92
